createdAt,value
2023-06-17T00:00:10.064Z,101221.80
2023-06-17T00:03:00.294Z,101219.37
2023-06-17T00:05:50.996Z,101212.77
2023-06-17T00:08:41.707Z,101213.67
2023-06-17T00:11:32.372Z,101214.44
2023-06-17T00:14:23.231Z,101217.23
2023-06-17T00:17:13.858Z,101214.41
2023-06-17T00:20:12.474Z,101221.52
2023-06-17T00:23:03.109Z,101221.42
2023-06-17T00:25:53.848Z,101217.14
2023-06-17T00:28:44.392Z,101213.99
2023-06-17T00:31:35.091Z,101201.88
2023-06-17T00:34:25.694Z,101192.54
2023-06-17T00:37:16.533Z,101195.10
2023-06-17T00:40:09.670Z,101196.85
2023-06-17T00:43:00.265Z,101202.84
2023-06-17T00:45:51.356Z,101205.21
2023-06-17T00:48:42.076Z,101205.43
2023-06-17T00:51:34.253Z,101201.07
2023-06-17T00:54:25.623Z,101193.05
2023-06-17T00:57:17.160Z,101195.81
2023-06-17T01:00:11.876Z,101197.95
2023-06-17T01:03:02.762Z,101191.77
2023-06-17T01:05:57.559Z,101192.96
2023-06-17T01:08:53.816Z,101189.23
2023-06-17T01:11:44.971Z,101186.73
2023-06-17T01:14:36.007Z,101187.61
2023-06-17T01:17:27.768Z,101187.09
2023-06-17T01:20:20.400Z,101188.39
2023-06-17T01:23:13.499Z,101183.91
2023-06-17T01:26:08.649Z,101183.73
2023-06-17T01:29:01.236Z,101182.31
2023-06-17T01:31:51.949Z,101182.16
2023-06-17T01:34:46.151Z,101179.61
2023-06-17T01:37:40.028Z,101181.77
2023-06-17T01:40:31.277Z,101176.09
2023-06-17T01:43:22.972Z,101169.56
2023-06-17T01:46:14.614Z,101169.33
2023-06-17T01:49:05.474Z,101166.06
2023-06-17T01:51:56.091Z,101164.33
2023-06-17T01:54:47.385Z,101167.98
2023-06-17T01:57:37.998Z,101165.35
2023-06-17T02:00:28.722Z,101166.04
2023-06-17T02:03:22.096Z,101167.39
2023-06-17T02:06:14.077Z,101166.45
2023-06-17T02:09:05.208Z,101161.53
2023-06-17T02:11:56.107Z,101159.46
2023-06-17T02:14:46.810Z,101157.45
2023-06-17T02:17:38.589Z,101151.31
2023-06-17T02:20:28.964Z,101146.37
2023-06-17T02:23:19.759Z,101143.66
2023-06-17T02:26:10.376Z,101139.87
2023-06-17T02:29:01.019Z,101141.80
2023-06-17T02:31:52.808Z,101143.42
2023-06-17T02:34:45.143Z,101133.18
2023-06-17T02:37:35.959Z,101132.41
2023-06-17T02:40:26.627Z,101128.88
2023-06-17T02:43:17.792Z,101119.19
2023-06-17T02:46:09.383Z,101115.56
2023-06-17T02:49:00.685Z,101112.06
2023-06-17T02:51:56.619Z,101100.55
2023-06-17T02:54:47.227Z,101089.33
2023-06-17T02:57:42.015Z,101091.64
2023-06-17T03:00:34.105Z,101090.02
2023-06-17T03:03:34.814Z,101086.91
2023-06-17T03:06:25.782Z,101080.93
2023-06-17T03:09:16.546Z,101078.06
2023-06-17T03:12:09.139Z,101077.96
2023-06-17T03:15:00.020Z,101078.53
2023-06-17T03:17:50.920Z,101077.53
2023-06-17T03:20:41.541Z,101085.59
2023-06-17T03:23:32.237Z,101086.38
2023-06-17T03:26:26.631Z,101081.63
2023-06-17T03:29:19.339Z,101082.64
2023-06-17T03:32:11.198Z,101075.88
2023-06-17T03:35:05.728Z,101079.08
2023-06-17T03:37:56.315Z,101075.08
2023-06-17T03:40:47.583Z,101072.81
2023-06-17T03:43:41.822Z,101069.92
2023-06-17T03:46:32.457Z,101068.19
2023-06-17T03:49:24.697Z,101065.80
2023-06-17T03:52:15.335Z,101066.48
2023-06-17T03:55:06.262Z,101068.95
2023-06-17T03:57:56.964Z,101065.61
2023-06-17T04:00:49.165Z,101068.70
2023-06-17T04:03:39.793Z,101068.16
2023-06-17T04:06:33.861Z,101070.34
2023-06-17T04:09:24.611Z,101069.27
2023-06-17T04:12:16.945Z,101070.22
2023-06-17T04:15:08.885Z,101073.78
2023-06-17T04:17:59.216Z,101074.84
2023-06-17T04:20:51.316Z,101077.41
2023-06-17T04:23:45.162Z,101075.17
2023-06-17T04:26:35.835Z,101070.63
2023-06-17T04:29:31.190Z,101064.57
2023-06-17T04:32:22.870Z,101064.00
2023-06-17T04:35:14.199Z,101067.68
2023-06-17T04:38:09.087Z,101069.36
2023-06-17T04:40:59.948Z,101059.20
2023-06-17T04:43:51.057Z,101053.79
2023-06-17T04:46:42.529Z,101050.46
2023-06-17T04:49:40.089Z,101053.52
2023-06-17T04:52:31.672Z,101050.23
2023-06-17T04:55:24.430Z,101048.95
2023-06-17T04:58:15.539Z,101043.29
2023-06-17T05:01:11.918Z,101044.89
2023-06-17T05:04:10.434Z,101040.20
2023-06-17T05:07:01.706Z,101035.90
2023-06-17T05:09:53.794Z,101033.96
2023-06-17T05:12:44.558Z,101031.69
2023-06-17T05:15:35.312Z,101029.95
2023-06-17T05:18:26.113Z,101033.27
2023-06-17T05:21:22.446Z,101035.90
2023-06-17T05:24:14.623Z,101038.25
2023-06-17T05:27:05.786Z,101038.36
2023-06-17T05:29:57.325Z,101036.20
2023-06-17T05:32:48.530Z,101033.35
2023-06-17T05:35:41.047Z,101038.58
2023-06-17T05:38:32.045Z,101041.52
2023-06-17T05:41:23.412Z,101039.04
2023-06-17T05:44:14.029Z,101038.23
2023-06-17T05:47:04.717Z,101033.16
2023-06-17T05:49:55.506Z,101027.77
2023-06-17T05:52:47.088Z,101028.14
2023-06-17T05:55:37.905Z,101031.59
2023-06-17T05:58:28.618Z,101035.90
2023-06-17T06:01:25.057Z,101027.73
2023-06-17T06:04:16.031Z,101017.77
2023-06-17T06:07:06.778Z,101015.17
2023-06-17T06:09:57.645Z,101014.77
2023-06-17T06:12:48.343Z,101012.77
2023-06-17T06:15:39.792Z,101011.05
2023-06-17T06:18:31.318Z,101004.79
2023-06-17T06:21:21.906Z,100999.55
2023-06-17T06:24:12.878Z,101001.27
2023-06-17T06:27:07.266Z,101004.88
2023-06-17T06:29:58.081Z,101008.52
2023-06-17T06:32:49.235Z,101012.49
2023-06-17T06:35:45.964Z,101015.33
2023-06-17T06:38:41.280Z,101018.60
2023-06-17T06:41:32.190Z,101016.91
2023-06-17T06:44:45.472Z,101014.69
2023-06-17T06:47:39.436Z,101015.46
2023-06-17T06:50:30.216Z,101017.81
2023-06-17T06:53:25.412Z,101022.61
2023-06-17T06:56:18.317Z,101022.39
2023-06-17T06:59:09.047Z,101026.67
2023-06-17T07:02:03.332Z,101028.33
2023-06-17T07:04:54.495Z,101024.02
2023-06-17T07:07:50.070Z,101028.70
2023-06-17T07:10:42.384Z,101030.80
2023-06-17T07:13:35.424Z,101037.79
2023-06-17T07:16:28.108Z,101038.72
2023-06-17T07:19:18.612Z,101040.60
2023-06-17T07:22:09.798Z,101040.04
2023-06-17T07:25:01.133Z,101036.73
2023-06-17T07:27:52.333Z,101038.79
2023-06-17T07:30:43.453Z,101034.45
2023-06-17T07:33:34.278Z,101037.90
2023-06-17T07:36:24.838Z,101037.60
2023-06-17T07:39:15.517Z,101033.98
2023-06-17T07:42:06.541Z,101034.33
2023-06-17T07:44:57.192Z,101040.39
2023-06-17T07:47:47.766Z,101039.73
2023-06-17T07:50:38.492Z,101041.08
2023-06-17T07:53:29.931Z,101044.30
2023-06-17T07:56:23.386Z,101047.67
2023-06-17T07:59:14.171Z,101049.19
2023-06-17T08:02:07.315Z,101053.25
2023-06-17T08:04:59.585Z,101051.59
2023-06-17T08:07:50.266Z,101053.16
2023-06-17T08:10:40.770Z,101058.83
2023-06-17T08:13:31.319Z,101061.08
2023-06-17T08:16:23.370Z,101060.66
2023-06-17T08:19:17.565Z,101059.92
2023-06-17T08:22:08.478Z,101065.77
2023-06-17T08:24:59.126Z,101068.15
2023-06-17T08:27:52.028Z,101069.05
2023-06-17T08:30:42.366Z,101070.08
2023-06-17T08:33:33.948Z,101072.81
2023-06-17T08:36:24.099Z,101078.02
2023-06-17T08:39:15.341Z,101078.06
2023-06-17T08:42:06.392Z,101072.05
2023-06-17T08:44:56.984Z,101067.56
2023-06-17T08:47:47.651Z,101077.84
2023-06-17T08:50:39.553Z,101076.84
2023-06-17T08:53:32.457Z,101076.25
2023-06-17T08:56:23.032Z,101073.89
2023-06-17T08:59:13.620Z,101074.80
2023-06-17T09:02:04.599Z,101070.25
2023-06-17T09:04:55.924Z,101067.19
2023-06-17T09:07:46.036Z,101066.29
2023-06-17T09:10:45.441Z,101062.66
2023-06-17T09:13:35.733Z,101055.79
2023-06-17T09:16:29.447Z,101055.80
2023-06-17T09:19:20.704Z,101054.70
2023-06-17T09:22:11.050Z,101046.54
2023-06-17T09:25:01.609Z,101042.04
2023-06-17T09:30:54.701Z,101030.63
2023-06-17T09:33:48.133Z,101029.90
2023-06-17T09:36:40.373Z,101026.36
2023-06-17T09:39:32.535Z,101017.69
2023-06-17T09:42:22.836Z,101009.67
2023-06-17T09:45:20.271Z,101010.04
2023-06-17T09:48:11.362Z,101017.73
2023-06-17T09:51:06.956Z,101019.70
2023-06-17T09:53:57.542Z,101013.20
2023-06-17T09:56:48.692Z,101010.13
2023-06-17T09:59:45.278Z,101000.36
2023-06-17T10:02:35.732Z,100990.23
2023-06-17T10:05:29.397Z,100982.11
2023-06-17T10:08:22.827Z,100980.11
2023-06-17T10:11:14.537Z,100976.74
2023-06-17T10:14:06.319Z,100982.58
2023-06-17T10:16:57.443Z,100987.62
2023-06-17T10:19:49.094Z,100984.69
2023-06-17T10:22:41.034Z,100980.80
2023-06-17T10:25:32.162Z,100974.27
2023-06-17T10:28:22.879Z,100964.05
2023-06-17T10:31:25.650Z,100956.83
2023-06-17T10:34:21.589Z,100953.79
2023-06-17T10:37:14.722Z,100951.91
2023-06-17T10:40:19.052Z,100954.43
2023-06-17T10:43:19.804Z,100957.02
2023-06-17T10:46:10.157Z,100958.61
2023-06-17T10:49:01.337Z,100960.19
2023-06-17T10:51:58.426Z,100957.70
2023-06-17T10:54:51.957Z,100949.87
2023-06-17T10:57:42.795Z,100948.75
2023-06-17T11:00:33.413Z,100944.84
2023-06-17T11:03:24.074Z,100943.27
2023-06-17T11:06:14.674Z,100948.99
2023-06-17T11:09:07.824Z,100949.86
2023-06-17T11:11:58.926Z,100948.96
2023-06-17T11:14:49.529Z,100948.69
2023-06-17T11:17:40.088Z,100943.90
2023-06-17T11:20:32.281Z,100941.11
2023-06-17T11:23:22.891Z,100942.42
2023-06-17T11:26:13.996Z,100939.86
2023-06-17T11:29:06.364Z,100939.48
2023-06-17T11:31:57.245Z,100937.71
2023-06-17T11:34:47.633Z,100944.77
2023-06-17T11:37:39.041Z,100942.02
2023-06-17T11:40:29.622Z,100940.05
2023-06-17T11:43:24.881Z,100941.89
2023-06-17T11:46:15.006Z,100939.80
2023-06-17T11:49:08.659Z,100945.55
2023-06-17T11:52:01.479Z,100946.01
2023-06-17T11:54:52.120Z,100938.55
2023-06-17T11:57:44.185Z,100944.77
2023-06-17T12:00:36.686Z,100952.89
2023-06-17T12:03:27.350Z,100958.78
2023-06-17T12:06:21.298Z,100966.80
2023-06-17T12:09:14.545Z,100965.41
2023-06-17T12:12:06.311Z,100960.89
2023-06-17T12:15:02.734Z,100960.45
2023-06-17T12:18:10.814Z,100958.19
2023-06-17T12:21:01.005Z,100959.66
2023-06-17T12:23:52.449Z,100959.22
2023-06-17T12:26:43.199Z,100959.66
2023-06-17T12:29:33.774Z,100964.06
2023-06-17T12:32:24.293Z,100953.77
2023-06-17T12:35:16.075Z,100948.00
2023-06-17T12:38:06.536Z,100945.90
2023-06-17T12:40:56.968Z,100944.13
2023-06-17T12:46:39.414Z,100941.73
2023-06-17T12:49:29.830Z,100935.50
2023-06-17T12:52:20.373Z,100923.27
2023-06-17T12:55:11.327Z,100920.59
2023-06-17T12:58:02.026Z,100926.09
2023-06-17T13:00:52.528Z,100921.44
2023-06-17T13:03:42.981Z,100916.68
2023-06-17T13:06:33.469Z,100913.23
2023-06-17T13:09:24.240Z,100911.80
2023-06-17T13:12:15.060Z,100907.90
2023-06-17T13:15:05.794Z,100908.85
2023-06-17T13:17:56.259Z,100902.83
2023-06-17T13:20:46.714Z,100905.70
2023-06-17T13:23:37.389Z,100908.29
2023-06-17T13:26:30.534Z,100905.55
2023-06-17T13:29:22.520Z,100898.90
2023-06-17T13:32:13.239Z,100888.52
2023-06-17T13:35:05.680Z,100883.52
2023-06-17T13:37:58.972Z,100879.36
2023-06-17T13:40:49.081Z,100876.95
2023-06-17T13:43:39.747Z,100881.19
2023-06-17T13:46:30.279Z,100887.08
2023-06-17T13:49:20.936Z,100888.36
2023-06-17T13:52:12.063Z,100881.48
2023-06-17T13:55:03.282Z,100868.00
2023-06-17T13:57:53.369Z,100863.27
2023-06-17T14:00:43.957Z,100861.66
2023-06-17T14:03:34.550Z,100865.74
2023-06-17T14:06:26.481Z,100877.25
2023-06-17T14:09:17.050Z,100879.93
2023-06-17T14:12:09.108Z,100876.88
2023-06-17T14:14:59.465Z,100874.15
2023-06-17T14:17:50.252Z,100875.02
2023-06-17T14:20:40.872Z,100878.91
2023-06-17T14:23:31.404Z,100881.31
2023-06-17T14:26:21.960Z,100874.85
2023-06-17T14:29:12.492Z,100874.77
2023-06-17T14:32:03.165Z,100873.64
2023-06-17T14:34:53.884Z,100864.86
2023-06-17T14:37:45.485Z,100859.11
2023-06-17T14:40:36.154Z,100847.83
2023-06-17T14:43:26.658Z,100843.02
2023-06-17T14:46:17.864Z,100842.52
2023-06-17T14:49:08.035Z,100838.05
2023-06-17T14:51:58.584Z,100835.14
2023-06-17T14:54:49.035Z,100839.44
2023-06-17T14:57:39.480Z,100841.20
2023-06-17T15:00:29.954Z,100839.89
2023-06-17T15:03:20.522Z,100836.50
2023-06-17T15:06:11.139Z,100833.30
2023-06-17T15:09:26.414Z,100828.67
2023-06-17T15:12:16.894Z,100827.98
2023-06-17T15:15:08.426Z,100825.73
2023-06-17T15:17:59.644Z,100820.06
2023-06-17T15:20:50.051Z,100816.77
2023-06-17T15:23:40.949Z,100812.95
2023-06-17T15:26:31.042Z,100814.48
2023-06-17T15:29:21.986Z,100812.17
2023-06-17T15:32:12.485Z,100806.75
2023-06-17T15:35:02.947Z,100805.75
2023-06-17T15:37:53.529Z,100812.42
2023-06-17T15:40:44.022Z,100804.66
2023-06-17T15:43:34.419Z,100801.17
2023-06-17T15:46:25.339Z,100804.77
2023-06-17T15:49:16.072Z,100800.31
2023-06-17T15:52:07.054Z,100794.87
2023-06-17T15:54:57.962Z,100791.84
2023-06-17T15:57:48.446Z,100781.09
2023-06-17T16:00:38.978Z,100784.22
2023-06-17T16:03:33.193Z,100781.10
2023-06-17T16:06:23.776Z,100773.52
2023-06-17T16:09:14.318Z,100769.50
2023-06-17T16:12:05.617Z,100772.55
2023-06-17T16:14:56.089Z,100767.80
2023-06-17T16:17:47.363Z,100758.61
2023-06-17T16:20:38.008Z,100760.72
2023-06-17T16:23:28.493Z,100770.30
2023-06-17T16:26:19.041Z,100777.76
2023-06-17T16:29:10.389Z,100775.83
2023-06-17T16:32:00.795Z,100772.70
2023-06-17T16:34:51.346Z,100770.17
2023-06-17T16:37:41.794Z,100769.98
2023-06-17T16:40:32.613Z,100766.30
2023-06-17T16:43:23.084Z,100773.73
2023-06-17T16:46:13.724Z,100767.79
2023-06-17T16:49:04.346Z,100768.22
2023-06-17T16:51:54.921Z,100769.15
2023-06-17T16:54:46.730Z,100770.17
2023-06-17T16:57:37.187Z,100771.31
2023-06-17T17:00:28.851Z,100772.27
2023-06-17T17:03:19.083Z,100763.39
2023-06-17T17:06:10.200Z,100753.86
2023-06-17T17:09:00.736Z,100745.34
2023-06-17T17:11:51.330Z,100742.38
2023-06-17T17:14:43.602Z,100738.17
2023-06-17T17:17:33.720Z,100735.39
2023-06-17T17:20:24.421Z,100733.52
2023-06-17T17:23:14.935Z,100744.09
2023-06-17T17:26:05.543Z,100743.22
2023-06-17T17:28:56.085Z,100738.65
2023-06-17T17:31:46.596Z,100740.54
2023-06-17T17:34:37.031Z,100748.16
2023-06-17T17:37:27.623Z,100754.33
2023-06-17T17:40:18.340Z,100752.36
2023-06-17T17:43:08.879Z,100757.43
2023-06-17T17:45:59.800Z,100762.52
2023-06-17T17:48:50.414Z,100771.25
2023-06-17T17:51:41.031Z,100775.90
2023-06-17T17:54:31.587Z,100779.86
2023-06-17T17:57:23.329Z,100779.85
2023-06-17T18:00:14.954Z,100783.11
2023-06-17T18:03:06.561Z,100788.56
2023-06-17T18:05:57.164Z,100787.32
2023-06-17T18:08:47.549Z,100793.54
2023-06-17T18:11:38.102Z,100793.48
2023-06-17T18:14:28.702Z,100790.15
2023-06-17T18:17:19.245Z,100785.66
2023-06-17T18:20:10.959Z,100783.20
2023-06-17T18:23:02.603Z,100786.30
2023-06-17T18:25:53.108Z,100793.35
2023-06-17T18:28:43.683Z,100791.32
2023-06-17T18:31:34.232Z,100787.69
2023-06-17T18:34:24.725Z,100789.55
2023-06-17T18:37:15.339Z,100783.34
2023-06-17T18:40:06.207Z,100782.02
2023-06-17T18:42:56.770Z,100785.88
2023-06-17T18:45:47.395Z,100781.37
2023-06-17T18:48:39.297Z,100778.16
2023-06-17T18:51:29.882Z,100782.14
2023-06-17T18:54:20.380Z,100779.55
2023-06-17T18:57:10.801Z,100773.07
2023-06-17T19:00:01.293Z,100783.52
2023-06-17T19:02:52.012Z,100778.77
2023-06-17T19:05:42.357Z,100777.03
2023-06-17T19:08:33.634Z,100777.09
2023-06-17T19:11:23.731Z,100782.66
2023-06-17T19:14:14.156Z,100784.96
2023-06-17T19:17:04.959Z,100787.77
2023-06-17T19:19:55.628Z,100789.15
2023-06-17T19:22:46.961Z,100790.98
2023-06-17T19:25:37.711Z,100789.58
2023-06-17T19:28:28.176Z,100785.36
2023-06-17T19:31:18.658Z,100793.02
2023-06-17T19:34:09.258Z,100790.38
2023-06-17T19:36:59.749Z,100788.83
2023-06-17T19:39:50.203Z,100795.85
2023-06-17T19:42:40.664Z,100794.71
2023-06-17T19:45:31.860Z,100791.11
2023-06-17T19:48:22.450Z,100786.46
2023-06-17T19:51:12.997Z,100790.83
2023-06-17T19:54:04.130Z,100789.53
2023-06-17T19:56:54.705Z,100792.81
2023-06-17T19:59:45.281Z,100786.85
2023-06-17T20:02:35.900Z,100785.24
2023-06-17T20:05:26.440Z,100780.83
2023-06-17T20:08:16.967Z,100767.69
2023-06-17T20:11:07.452Z,100764.61
2023-06-17T20:13:58.033Z,100761.27
2023-06-17T20:16:48.463Z,100760.33
2023-06-17T20:19:39.077Z,100761.56
2023-06-17T20:22:29.784Z,100757.69
2023-06-17T20:25:20.734Z,100764.34
2023-06-17T20:28:10.848Z,100763.42
2023-06-17T20:31:01.765Z,100766.60
2023-06-17T20:33:52.498Z,100767.80
2023-06-17T20:36:57.499Z,100769.66
2023-06-17T20:39:50.151Z,100767.03
2023-06-17T20:42:40.746Z,100768.47
2023-06-17T20:45:31.816Z,100773.19
2023-06-17T20:48:22.179Z,100775.14
2023-06-17T20:51:12.859Z,100776.33
2023-06-17T20:54:03.424Z,100774.38
2023-06-17T20:56:54.165Z,100776.49
2023-06-17T20:59:44.790Z,100777.21
2023-06-17T21:02:35.625Z,100781.80
2023-06-17T21:05:26.258Z,100787.39
2023-06-17T21:08:18.695Z,100783.25
2023-06-17T21:11:08.971Z,100782.58
2023-06-17T21:14:00.405Z,100781.52
2023-06-17T21:16:50.993Z,100773.70
2023-06-17T21:19:41.644Z,100770.86
2023-06-17T21:22:56.202Z,100774.21
2023-06-17T21:25:53.162Z,100773.45
2023-06-17T21:28:43.704Z,100769.96
2023-06-17T21:31:34.158Z,100768.98
2023-06-17T21:34:24.742Z,100768.55
2023-06-17T21:37:15.197Z,100763.79
2023-06-17T21:40:08.674Z,100759.49
2023-06-17T21:42:59.363Z,100758.36
2023-06-17T21:45:51.253Z,100757.22
2023-06-17T21:48:43.128Z,100756.20
2023-06-17T21:51:33.783Z,100754.55
2023-06-17T21:54:24.432Z,100750.76
2023-06-17T21:57:16.383Z,100744.59
2023-06-17T22:00:09.144Z,100747.95
2023-06-17T22:03:06.562Z,100744.74
2023-06-17T22:05:57.687Z,100747.77
2023-06-17T22:08:48.302Z,100744.67
2023-06-17T22:11:39.073Z,100747.83
2023-06-17T22:14:30.016Z,100745.77
2023-06-17T22:17:20.962Z,100745.84
2023-06-17T22:20:15.419Z,100746.60
2023-06-17T22:23:06.125Z,100753.77
2023-06-17T22:25:57.617Z,100758.01
2023-06-17T22:28:48.575Z,100758.59
2023-06-17T22:31:39.300Z,100756.71
2023-06-17T22:34:30.035Z,100756.48
2023-06-17T22:37:20.726Z,100756.74
2023-06-17T22:40:12.307Z,100751.90
2023-06-17T22:43:03.125Z,100753.42
2023-06-17T22:45:53.939Z,100753.84
2023-06-17T22:48:44.693Z,100751.17
2023-06-17T22:51:35.423Z,100740.75
2023-06-17T22:54:28.107Z,100734.91
2023-06-17T22:57:18.766Z,100737.91
2023-06-17T23:00:12.107Z,100739.61
2023-06-17T23:03:02.673Z,100735.40
2023-06-17T23:05:53.838Z,100732.08
2023-06-17T23:08:47.323Z,100735.81
2023-06-17T23:11:38.097Z,100733.91
2023-06-17T23:14:28.647Z,100732.40
2023-06-17T23:17:19.465Z,100734.63
2023-06-17T23:20:10.922Z,100734.10
2023-06-17T23:23:04.317Z,100732.88
2023-06-17T23:25:54.864Z,100728.11
2023-06-17T23:28:45.779Z,100724.52
2023-06-17T23:31:36.665Z,100723.17
2023-06-17T23:34:27.772Z,100726.80
2023-06-17T23:37:21.328Z,100727.71
2023-06-17T23:40:14.546Z,100726.56
2023-06-17T23:43:05.009Z,100730.09
2023-06-17T23:45:57.693Z,100730.80
2023-06-17T23:48:48.657Z,100731.33
2023-06-17T23:51:39.277Z,100727.49
2023-06-17T23:54:29.810Z,100726.52
2023-06-17T23:57:20.579Z,100726.65
